Spencerville, Oklahoma
Current Conditions -  °F | °C
As of 9:55 PM on Sunday 23 Nov 2014 (Local Time) from KHHW Reporting Station
Overcast Overcast  
Wind Chill: 52°   Ceiling: 2600
Heat Index: 52°   Visibility: 10mi
Dew Point: 40°   Wind: 22mph
Humidity: 64%   Direction: 300°WNW
Pressure: 29.64"   Gusts: 31mph
Location:  34.14°N, 95.36°W
Report Text: KHHW 240355Z AUTO 30019G27KT 10SM OVC026 11/05 A2964 RMK AO2 T01120045
Loading
Personal Weather Stations






























Interactive Weather Map New forecast layout! Learn more

10-Day Weather Forecast

Advertisements
Track Severe Weather on mobile